Time;durP1;ratioP1;P1;durP2;ratioP2;P2;SDS_P1;SDS_P2;PMS_P1;PMS_P2;Temp;Humidity;BMP_temperature;BMP_pressure;BME280_temperature;BME280_humidity;BME280_pressure;Samples;Min_cycle;Max_cycle;Signal;HPM_P1;HPM_P2
2023/01/28 00:00:38;;;;;;;11.07;4.63;;;0.60;99.90;;;;;;5055712;28;20875;-68
2023/01/28 00:03:05;;;;;;;10.20;5.50;;;0.60;99.90;;;;;;5055270;28;20954;-68
2023/01/28 00:05:32;;;;;;;12.13;6.47;;;0.60;99.90;;;;;;5055183;28;20459;-68
2023/01/28 00:07:59;;;;;;;6.20;4.37;;;0.60;99.90;;;;;;5054917;28;20962;-68
2023/01/28 00:10:25;;;;;;;8.53;4.00;;;0.60;99.90;;;;;;5055742;28;20553;-68
2023/01/28 00:12:52;;;;;;;9.30;4.67;;;0.50;99.90;;;;;;5054796;28;20569;-69
2023/01/28 00:15:19;;;;;;;7.70;4.47;;;0.50;99.90;;;;;;5055121;28;20455;-68
2023/01/28 00:17:47;;;;;;;9.00;4.80;;;0.50;99.90;;;;;;5054871;28;20466;-68
2023/01/28 00:20:14;;;;;;;9.37;4.23;;;0.50;99.90;;;;;;5054844;28;20554;-70
2023/01/28 00:22:41;;;;;;;8.40;5.07;;;0.50;99.90;;;;;;5054787;28;20462;-69
2023/01/28 00:25:08;;;;;;;9.70;4.47;;;0.40;99.90;;;;;;5055118;28;20487;-68
2023/01/28 00:27:35;;;;;;;9.00;4.33;;;0.40;99.90;;;;;;5055086;28;20850;-68
2023/01/28 00:30:01;;;;;;;15.50;5.53;;;0.40;99.90;;;;;;5055248;28;20466;-69
2023/01/28 00:32:29;;;;;;;6.40;4.57;;;0.40;99.90;;;;;;5054983;28;20479;-68
2023/01/28 00:34:57;;;;;;;13.23;5.17;;;0.40;99.90;;;;;;5055166;28;20513;-69
2023/01/28 00:37:24;;;;;;;11.63;4.80;;;0.30;99.90;;;;;;5054877;28;20545;-69
2023/01/28 00:39:51;;;;;;;14.63;5.27;;;0.30;99.90;;;;;;5055116;28;20818;-69
2023/01/28 00:42:17;;;;;;;8.50;4.27;;;0.30;99.90;;;;;;5054167;28;20487;-69
2023/01/28 00:44:45;;;;;;;7.27;4.80;;;0.30;99.90;;;;;;5054227;28;20483;-69
2023/01/28 00:47:12;;;;;;;10.90;4.83;;;0.20;99.90;;;;;;5054692;28;20461;-69
2023/01/28 00:49:39;;;;;;;5.80;4.10;;;0.20;99.90;;;;;;5054556;28;20459;-68
2023/01/28 00:52:07;;;;;;;10.00;4.97;;;0.20;99.90;;;;;;5054699;28;20812;-68
2023/01/28 00:54:35;;;;;;;8.03;4.50;;;0.20;99.90;;;;;;5054657;28;20546;-69
2023/01/28 00:57:02;;;;;;;9.87;3.93;;;0.20;99.90;;;;;;5054858;28;20459;-68
2023/01/28 00:59:28;;;;;;;6.60;3.70;;;0.10;99.90;;;;;;5054464;28;20545;-68
2023/01/28 01:02:10;;;;;;;10.90;4.53;;;0.10;99.90;;;;;;5054825;28;20461;-69
2023/01/28 01:04:37;;;;;;;11.83;4.63;;;0.10;99.90;;;;;;5054518;28;20453;-68
2023/01/28 01:07:04;;;;;;;8.87;5.00;;;0.10;99.90;;;;;;5054992;28;20791;-68
2023/01/28 01:09:33;;;;;;;8.50;3.97;;;0.10;99.90;;;;;;5054745;28;20539;-68
2023/01/28 01:11:59;;;;;;;9.90;3.77;;;0.10;99.90;;;;;;5054491;28;20489;-67
2023/01/28 01:14:26;;;;;;;8.30;4.70;;;0.10;99.90;;;;;;5055205;28;20455;-68
2023/01/28 01:16:53;;;;;;;11.37;4.30;;;0.10;99.90;;;;;;5055018;28;20498;-68
2023/01/28 01:19:20;;;;;;;6.57;3.50;;;0.10;99.90;;;;;;5054756;28;20465;-68
2023/01/28 01:21:49;;;;;;;5.20;4.03;;;0.10;99.90;;;;;;5055499;28;20466;-69
2023/01/28 01:24:16;;;;;;;7.03;3.80;;;0.20;99.90;;;;;;5058867;28;20918;-68
2023/01/28 01:26:44;;;;;;;7.77;4.17;;;0.20;99.90;;;;;;5058940;28;20915;-69
2023/01/28 01:29:11;;;;;;;8.37;4.00;;;0.20;99.90;;;;;;5058622;28;20542;-70
2023/01/28 01:31:38;;;;;;;5.97;4.30;;;0.30;99.90;;;;;;5058689;28;20491;-68
2023/01/28 01:34:05;;;;;;;8.27;4.57;;;0.40;99.90;;;;;;5058790;28;20459;-68
2023/01/28 01:36:32;;;;;;;8.23;4.90;;;0.40;99.90;;;;;;5059187;28;20459;-69
2023/01/28 01:38:59;;;;;;;7.10;4.30;;;0.50;99.90;;;;;;5059121;28;20469;-68
2023/01/28 01:41:28;;;;;;;8.00;4.10;;;0.50;99.90;;;;;;5058944;28;20545;-69
2023/01/28 01:43:58;;;;;;;9.80;4.17;;;0.60;99.90;;;;;;5058879;28;20494;-68
2023/01/28 01:46:32;;;;;;;5.00;3.97;;;0.60;99.90;;;;;;5058554;28;20455;-68
2023/01/28 01:49:06;;;;;;;6.27;3.90;;;0.70;99.90;;;;;;5058899;28;20514;-68
2023/01/28 01:51:36;;;;;;;4.87;3.20;;;0.70;99.90;;;;;;5058790;28;20453;-70
2023/01/28 01:54:04;;;;;;;5.13;3.60;;;0.80;99.90;;;;;;5058807;28;20522;-68
2023/01/28 01:56:35;;;;;;;5.40;3.67;;;0.80;99.90;;;;;;5059527;28;20554;-69
2023/01/28 01:59:04;;;;;;;5.97;3.80;;;0.90;99.90;;;;;;5058838;28;20453;-69
2023/01/28 02:01:32;;;;;;;4.30;3.30;;;0.90;99.90;;;;;;5059221;28;20890;-69
2023/01/28 02:04:04;;;;;;;5.63;4.00;;;0.90;99.90;;;;;;5059384;28;20531;-69
2023/01/28 02:06:32;;;;;;;6.37;3.70;;;0.90;99.90;;;;;;5058955;28;20453;-68
2023/01/28 02:08:59;;;;;;;5.57;3.73;;;1.00;99.90;;;;;;5058369;28;20764;-69
2023/01/28 02:11:30;;;;;;;5.43;3.80;;;1.00;99.90;;;;;;5058055;28;20919;-68
2023/01/28 02:13:59;;;;;;;6.00;3.87;;;1.00;99.90;;;;;;5058114;28;20482;-68
2023/01/28 02:16:28;;;;;;;8.27;3.50;;;1.00;99.90;;;;;;5058232;28;20785;-69
2023/01/28 02:18:55;;;;;;;5.67;3.37;;;1.00;99.90;;;;;;5058526;28;20550;-68
2023/01/28 02:21:57;;;;;;;7.80;3.77;;;1.10;99.90;;;;;;5058158;28;20475;-70
2023/01/28 02:24:54;;;;;;;5.60;3.30;;;1.10;99.90;;;;;;5058523;28;20469;-69
2023/01/28 02:27:29;;;;;;;6.23;3.33;;;1.10;99.90;;;;;;5058268;28;20450;-69
2023/01/28 02:30:03;;;;;;;5.70;3.53;;;1.10;99.90;;;;;;5058415;28;20504;-69
2023/01/28 02:32:38;;;;;;;3.97;3.53;;;1.10;99.90;;;;;;5057595;28;20550;-69
2023/01/28 02:35:12;;;;;;;5.70;3.60;;;1.10;99.90;;;;;;5057156;28;20443;-69
2023/01/28 02:37:43;;;;;;;5.53;3.70;;;1.20;99.90;;;;;;5057608;28;20509;-68
2023/01/28 02:40:13;;;;;;;5.07;3.80;;;1.20;99.90;;;;;;5057926;28;20444;-69
2023/01/28 02:42:41;;;;;;;4.67;3.03;;;1.20;99.90;;;;;;5057598;28;20816;-68
2023/01/28 02:45:18;;;;;;;6.57;4.23;;;1.30;99.90;;;;;;5058142;28;20751;-68
2023/01/28 02:47:56;;;;;;;5.53;3.80;;;1.30;99.90;;;;;;5059224;28;20440;-67
2023/01/28 02:50:25;;;;;;;6.97;3.70;;;1.30;99.90;;;;;;5058832;28;20447;-69
2023/01/28 02:55:51;;;;;;;3.00;2.70;;;1.30;99.90;;;;;;5058586;28;20446;-67
2023/01/28 02:58:26;;;;;;;5.70;3.43;;;1.30;99.90;;;;;;5059141;28;20453;-68
2023/01/28 03:01:00;;;;;;;7.83;3.47;;;1.30;99.90;;;;;;5058642;28;20525;-68
2023/01/28 03:03:34;;;;;;;4.27;3.37;;;1.30;99.90;;;;;;5057776;28;20864;-68
2023/01/28 03:06:06;;;;;;;4.33;3.87;;;1.30;99.90;;;;;;5057395;28;20864;-68
2023/01/28 03:36:47;;;;;;;6.10;3.40;;;1.40;99.90;;;;;;5056630;28;20430;-69
2023/01/28 03:39:14;;;;;;;4.20;3.10;;;1.40;99.90;;;;;;5057396;28;20451;-69
2023/01/28 03:41:41;;;;;;;3.67;2.77;;;1.40;99.90;;;;;;5057060;28;20462;-69
2023/01/28 03:46:52;;;;;;;6.40;3.60;;;1.40;99.90;;;;;;5055218;28;20517;-68
2023/01/28 03:49:21;;;;;;;3.30;2.57;;;1.40;99.90;;;;;;5056836;28;20518;-68
2023/01/28 03:51:47;;;;;;;3.40;2.90;;;1.40;99.90;;;;;;5056339;28;20459;-68
2023/01/28 03:54:14;;;;;;;8.83;4.47;;;1.40;99.90;;;;;;5056509;28;20522;-69
2023/01/28 03:56:41;;;;;;;3.47;3.17;;;1.50;99.90;;;;;;5055925;28;20459;-68
2023/01/28 03:59:08;;;;;;;6.40;3.40;;;1.50;99.90;;;;;;5056521;28;20517;-69
2023/01/28 04:01:35;;;;;;;5.37;3.40;;;1.50;99.90;;;;;;5055720;28;20553;-68
2023/01/28 04:04:02;;;;;;;3.70;2.93;;;1.60;99.90;;;;;;5055627;28;20534;-68
2023/01/28 04:06:30;;;;;;;4.67;3.23;;;1.60;99.90;;;;;;5056305;28;20542;-68
2023/01/28 04:08:58;;;;;;;4.97;3.03;;;1.60;99.90;;;;;;5055573;28;20483;-68
2023/01/28 04:11:25;;;;;;;6.30;3.50;;;1.70;99.90;;;;;;5055556;28;20465;-68
2023/01/28 04:13:53;;;;;;;3.20;2.67;;;1.70;99.90;;;;;;5055169;28;20479;-68
2023/01/28 04:16:20;;;;;;;3.77;3.03;;;1.70;99.90;;;;;;5055535;28;20554;-68
2023/01/28 04:18:47;;;;;;;3.90;2.93;;;1.70;99.90;;;;;;5055133;28;20509;-68
2023/01/28 04:21:14;;;;;;;4.03;3.13;;;1.70;99.90;;;;;;5055477;28;20459;-68
2023/01/28 04:23:42;;;;;;;4.30;2.60;;;1.80;99.90;;;;;;5056121;28;20455;-69
2023/01/28 04:26:09;;;;;;;4.13;2.63;;;1.80;99.90;;;;;;5055514;28;20536;-69
2023/01/28 04:28:36;;;;;;;4.40;2.90;;;1.80;99.90;;;;;;5055406;28;21018;-68
2023/01/28 04:31:02;;;;;;;4.73;2.33;;;1.80;99.90;;;;;;5055546;28;20465;-69
2023/01/28 04:33:29;;;;;;;3.50;2.30;;;1.90;99.90;;;;;;5056055;28;20525;-68
2023/01/28 04:35:56;;;;;;;3.90;3.07;;;1.90;99.90;;;;;;5055902;28;20495;-68
2023/01/28 04:38:23;;;;;;;4.53;3.27;;;1.90;99.90;;;;;;5055434;28;20545;-68
2023/01/28 04:40:52;;;;;;;3.80;3.50;;;1.90;99.90;;;;;;5055694;28;20786;-68
2023/01/28 04:43:19;;;;;;;3.27;2.80;;;2.00;99.90;;;;;;5054968;28;21025;-68
2023/01/28 04:45:46;;;;;;;3.10;2.80;;;2.00;99.90;;;;;;5055291;28;20459;-67
2023/01/28 04:48:13;;;;;;;3.50;3.20;;;2.00;99.90;;;;;;5055172;28;20455;-68
2023/01/28 04:50:40;;;;;;;4.47;3.10;;;2.00;99.90;;;;;;5056214;28;20975;-68
2023/01/28 04:53:07;;;;;;;4.17;2.83;;;2.00;99.90;;;;;;5056493;28;20802;-68
2023/01/28 04:55:34;;;;;;;7.30;3.03;;;2.10;99.90;;;;;;5056150;28;20455;-69
2023/01/28 04:58:02;;;;;;;4.30;3.20;;;2.10;99.90;;;;;;5060347;28;20465;-69
2023/01/28 05:00:29;;;;;;;3.70;3.10;;;2.10;99.90;;;;;;5062456;28;20851;-68
2023/01/28 05:02:56;;;;;;;6.23;3.87;;;2.10;99.90;;;;;;5062475;28;20451;-68
2023/01/28 05:05:23;;;;;;;9.10;4.00;;;2.10;99.90;;;;;;5062234;28;20941;-68
2023/01/28 05:07:53;;;;;;;3.53;3.03;;;2.10;99.90;;;;;;5062820;28;20923;-68
2023/01/28 05:10:20;;;;;;;4.93;3.30;;;2.10;99.90;;;;;;5061931;28;20455;-69
2023/01/28 05:12:48;;;;;;;6.43;5.47;;;2.10;99.90;;;;;;5062296;28;20481;-69
2023/01/28 05:15:17;;;;;;;9.27;6.73;;;2.10;99.90;;;;;;5061382;28;20558;-69
2023/01/28 05:17:44;;;;;;;4.70;3.90;;;2.10;99.90;;;;;;5061032;28;20459;-68
2023/01/28 05:20:13;;;;;;;3.93;3.30;;;2.10;99.90;;;;;;5061592;28;20458;-69
2023/01/28 05:22:41;;;;;;;3.43;2.63;;;2.10;99.90;;;;;;5061395;28;20454;-68
2023/01/28 05:25:09;;;;;;;3.37;2.97;;;2.10;99.90;;;;;;5061099;28;20979;-68
2023/01/28 05:27:36;;;;;;;3.40;2.83;;;2.10;99.90;;;;;;5061459;28;20542;-68
2023/01/28 05:30:02;;;;;;;5.23;3.10;;;2.20;99.90;;;;;;5061417;28;20963;-68
2023/01/28 05:32:31;;;;;;;4.97;3.00;;;2.20;99.90;;;;;;5061776;28;20454;-68
2023/01/28 05:34:57;;;;;;;3.63;3.33;;;2.30;99.90;;;;;;5061314;28;20483;-68
2023/01/28 05:37:24;;;;;;;5.40;3.40;;;2.30;99.90;;;;;;5061381;28;20561;-68
2023/01/28 05:39:51;;;;;;;7.20;3.70;;;2.30;99.90;;;;;;5061335;28;20954;-68
2023/01/28 05:42:19;;;;;;;5.13;4.03;;;2.30;99.90;;;;;;5062146;28;20549;-69
2023/01/28 05:44:46;;;;;;;8.57;4.13;;;2.20;99.90;;;;;;5061542;28;20493;-68
2023/01/28 05:47:13;;;;;;;4.23;3.80;;;2.30;99.90;;;;;;5061235;28;20516;-69
2023/01/28 05:49:41;;;;;;;5.70;3.90;;;2.30;99.90;;;;;;5061641;28;20469;-69
2023/01/28 05:52:08;;;;;;;4.60;3.90;;;2.30;99.90;;;;;;5061397;28;20455;-69
2023/01/28 05:54:35;;;;;;;6.90;5.13;;;2.30;99.90;;;;;;5061052;28;20474;-69
2023/01/28 05:57:02;;;;;;;5.77;4.60;;;2.30;99.90;;;;;;5061384;28;20455;-68
2023/01/28 05:59:28;;;;;;;6.93;4.37;;;2.30;99.90;;;;;;5061704;28;20556;-69
2023/01/28 06:01:55;;;;;;;6.70;5.20;;;2.30;99.90;;;;;;5061097;28;20937;-68
2023/01/28 06:04:22;;;;;;;4.90;3.97;;;2.30;99.90;;;;;;5060809;28;20461;-70
2023/01/28 06:06:50;;;;;;;6.47;5.00;;;2.30;99.90;;;;;;5061649;28;20459;-69
2023/01/28 06:09:17;;;;;;;10.13;5.80;;;2.30;99.90;;;;;;5059013;28;20455;-69
2023/01/28 06:11:45;;;;;;;11.60;5.90;;;2.30;99.90;;;;;;5058382;28;20798;-68
2023/01/28 06:14:12;;;;;;;9.13;6.63;;;2.30;99.90;;;;;;5057985;28;20646;-68
2023/01/28 06:16:39;;;;;;;7.93;5.40;;;2.30;99.90;;;;;;5058001;28;20451;-68
2023/01/28 06:19:05;;;;;;;10.07;6.10;;;2.30;99.90;;;;;;5058862;28;20804;-69
2023/01/28 06:21:32;;;;;;;9.37;6.10;;;2.30;99.90;;;;;;5058438;28;20465;-68
2023/01/28 06:24:00;;;;;;;8.10;6.20;;;2.30;99.90;;;;;;5057853;28;20462;-68
2023/01/28 06:26:27;;;;;;;10.63;6.00;;;2.30;99.90;;;;;;5057977;28;20938;-69
2023/01/28 06:28:55;;;;;;;9.40;6.10;;;2.40;99.90;;;;;;5057522;28;20455;-69
2023/01/28 06:31:21;;;;;;;8.67;5.67;;;2.40;99.90;;;;;;5058602;28;20529;-68
2023/01/28 06:33:48;;;;;;;6.30;5.10;;;2.40;99.90;;;;;;5057839;28;20562;-68
2023/01/28 06:36:15;;;;;;;6.73;4.77;;;2.40;99.90;;;;;;5057514;28;20461;-69
2023/01/28 06:38:42;;;;;;;8.70;4.53;;;2.40;99.90;;;;;;5057853;28;20459;-69
2023/01/28 06:41:10;;;;;;;13.13;5.57;;;2.40;99.90;;;;;;5057596;28;20459;-69
2023/01/28 06:43:37;;;;;;;10.53;5.17;;;2.40;99.90;;;;;;5057572;28;20585;-68
2023/01/28 06:46:04;;;;;;;5.27;4.10;;;2.40;99.90;;;;;;5057983;28;20554;-70
2023/01/28 06:48:31;;;;;;;7.10;4.63;;;2.40;99.90;;;;;;5058482;28;20473;-68
2023/01/28 06:50:58;;;;;;;7.60;4.83;;;2.30;99.90;;;;;;5057359;28;20920;-68
2023/01/28 06:53:24;;;;;;;6.40;4.57;;;2.30;99.90;;;;;;5057717;28;20969;-69
2023/01/28 06:55:51;;;;;;;4.90;3.87;;;2.30;99.90;;;;;;5057823;28;20469;-68
2023/01/28 06:58:19;;;;;;;6.47;4.57;;;2.30;99.90;;;;;;5057746;28;20459;-69
2023/01/28 07:00:46;;;;;;;7.67;4.87;;;2.30;99.90;;;;;;5056814;28;20905;-68
2023/01/28 07:03:13;;;;;;;7.80;4.17;;;2.30;99.90;;;;;;5057376;28;20455;-69
2023/01/28 07:05:40;;;;;;;7.70;4.40;;;2.30;99.90;;;;;;5056742;28;20459;-69
2023/01/28 07:08:07;;;;;;;5.70;4.77;;;2.30;99.90;;;;;;5056964;28;20547;-68
2023/01/28 07:10:34;;;;;;;5.07;3.90;;;2.30;99.90;;;;;;5057855;28;20466;-70
2023/01/28 07:13:01;;;;;;;6.20;4.00;;;2.40;99.90;;;;;;5058231;28;20455;-68
2023/01/28 07:15:29;;;;;;;6.33;4.77;;;2.40;99.90;;;;;;5078724;28;20819;-69
2023/01/28 07:17:56;;;;;;;12.33;5.30;;;2.40;99.90;;;;;;5077498;28;20454;-70
2023/01/28 07:20:23;;;;;;;6.63;4.70;;;2.40;99.90;;;;;;5076048;28;20494;-69
2023/01/28 07:22:50;;;;;;;8.57;5.07;;;2.40;99.90;;;;;;5076372;28;20458;-69
2023/01/28 07:25:17;;;;;;;3.43;3.13;;;2.50;99.90;;;;;;5075907;28;20450;-69
2023/01/28 07:27:48;;;;;;;5.83;3.40;;;2.50;99.90;;;;;;5076386;28;20486;-70
2023/01/28 07:30:15;;;;;;;3.20;2.90;;;2.50;99.90;;;;;;5076310;28;20930;-70
2023/01/28 07:32:44;;;;;;;6.07;3.83;;;2.50;99.90;;;;;;5076102;28;20476;-69
2023/01/28 07:35:11;;;;;;;4.30;3.90;;;2.50;99.90;;;;;;5075953;28;20474;-68
2023/01/28 07:37:38;;;;;;;4.10;3.20;;;2.50;99.90;;;;;;5075914;28;20454;-70
2023/01/28 07:40:06;;;;;;;3.60;2.73;;;2.50;99.90;;;;;;5075626;28;20464;-70
2023/01/28 07:42:33;;;;;;;6.03;3.67;;;2.50;99.90;;;;;;5075509;28;20504;-70
2023/01/28 07:44:59;;;;;;;10.63;3.37;;;2.60;99.90;;;;;;5075807;28;20839;-69
2023/01/28 07:47:27;;;;;;;3.80;2.97;;;2.60;99.90;;;;;;5075872;28;20454;-70
2023/01/28 07:49:55;;;;;;;4.87;3.10;;;2.60;99.90;;;;;;5075588;28;20990;-70
2023/01/28 07:52:22;;;;;;;6.30;3.83;;;2.60;99.90;;;;;;5075278;28;20486;-71
2023/01/28 07:54:49;;;;;;;4.00;2.97;;;2.60;99.90;;;;;;5055658;28;20489;-69
2023/01/28 07:57:22;;;;;;;3.80;3.30;;;2.70;99.90;;;;;;5062681;28;20469;-69
2023/01/28 07:59:49;;;;;;;6.67;5.20;;;2.70;99.90;;;;;;5075764;28;20453;-68
2023/01/28 08:02:17;;;;;;;4.43;3.43;;;2.70;99.90;;;;;;5075550;28;20787;-69
2023/01/28 08:04:44;;;;;;;5.43;3.17;;;2.80;99.90;;;;;;5075729;28;20796;-70
2023/01/28 08:07:12;;;;;;;3.03;2.50;;;2.80;99.90;;;;;;5075311;28;20497;-70
2023/01/28 08:09:39;;;;;;;3.80;2.83;;;2.80;99.90;;;;;;5075582;28;20455;-70
2023/01/28 08:12:06;;;;;;;5.67;3.00;;;2.80;99.90;;;;;;5075449;28;20469;-70
2023/01/28 08:14:33;;;;;;;3.37;3.07;;;2.80;99.90;;;;;;5075170;28;20485;-69
2023/01/28 08:17:00;;;;;;;4.57;3.30;;;2.80;99.90;;;;;;5070128;28;20459;-69
2023/01/28 08:19:27;;;;;;;4.47;3.47;;;2.80;99.90;;;;;;5055310;28;20505;-69
2023/01/28 08:21:54;;;;;;;3.03;2.53;;;2.80;99.90;;;;;;5055108;28;20465;-70
2023/01/28 08:24:22;;;;;;;3.30;2.90;;;2.80;99.90;;;;;;5055534;28;20462;-70
2023/01/28 08:26:49;;;;;;;3.20;2.63;;;2.90;99.90;;;;;;5055459;28;20455;-70
2023/01/28 08:29:16;;;;;;;5.10;2.60;;;2.90;99.90;;;;;;5055540;28;20554;-71
2023/01/28 08:31:43;;;;;;;10.37;7.83;;;2.90;99.90;;;;;;5054929;28;20564;-71
2023/01/28 08:34:09;;;;;;;9.00;6.13;;;2.90;99.90;;;;;;5055687;28;20490;-70
2023/01/28 08:36:36;;;;;;;4.27;3.23;;;2.90;99.90;;;;;;5054955;28;20455;-71
2023/01/28 08:39:04;;;;;;;3.13;2.50;;;3.00;99.90;;;;;;5055242;28;20454;-71
2023/01/28 08:41:33;;;;;;;3.90;3.13;;;3.00;99.90;;;;;;5054674;28;20459;-70
2023/01/28 08:44:00;;;;;;;6.73;4.40;;;3.00;99.90;;;;;;5054784;28;20785;-69
2023/01/28 08:46:27;;;;;;;8.03;5.47;;;3.00;99.90;;;;;;5054758;28;20466;-69
2023/01/28 08:48:53;;;;;;;15.77;8.80;;;3.00;99.90;;;;;;5054873;28;20455;-69
2023/01/28 08:51:20;;;;;;;8.07;5.70;;;3.00;99.90;;;;;;5054649;28;20466;-69
2023/01/28 08:53:47;;;;;;;8.23;4.20;;;3.00;99.90;;;;;;5054736;28;20484;-69
2023/01/28 08:56:15;;;;;;;3.73;2.80;;;3.00;99.90;;;;;;5055059;28;20781;-70
2023/01/28 08:58:43;;;;;;;9.03;3.30;;;3.10;99.90;;;;;;5055201;28;20459;-70
2023/01/28 09:01:10;;;;;;;4.70;2.90;;;3.10;99.90;;;;;;5054692;28;20861;-68
2023/01/28 09:03:37;;;;;;;4.93;3.17;;;3.10;99.90;;;;;;5054396;28;20826;-69
2023/01/28 09:06:05;;;;;;;4.90;3.30;;;3.20;99.90;;;;;;5054505;28;20466;-69
2023/01/28 09:08:32;;;;;;;12.30;4.70;;;3.20;99.90;;;;;;5054744;28;20794;-69
2023/01/28 09:11:00;;;;;;;8.10;4.37;;;3.30;99.90;;;;;;5054408;28;20927;-69
2023/01/28 09:13:27;;;;;;;7.50;4.47;;;3.30;99.90;;;;;;5055366;28;20981;-69
2023/01/28 09:15:55;;;;;;;4.03;2.57;;;3.30;99.90;;;;;;5054838;28;20505;-70
2023/01/28 09:18:22;;;;;;;3.50;2.60;;;3.30;99.90;;;;;;5054860;28;20481;-70
2023/01/28 09:20:49;;;;;;;4.90;3.10;;;3.30;99.90;;;;;;5054412;28;20545;-69
2023/01/28 09:23:16;;;;;;;6.33;3.07;;;3.30;99.90;;;;;;5054351;28;20542;-69
2023/01/28 09:25:43;;;;;;;14.37;4.20;;;3.30;99.90;;;;;;5054775;28;20542;-69
2023/01/28 09:28:10;;;;;;;10.00;3.60;;;3.30;99.90;;;;;;5054881;28;20534;-69
2023/01/28 09:30:38;;;;;;;13.27;4.33;;;3.30;99.90;;;;;;5054551;28;20665;-70
2023/01/28 09:33:07;;;;;;;6.07;3.13;;;3.30;99.90;;;;;;5054408;28;20493;-70
2023/01/28 09:35:34;;;;;;;2.87;2.20;;;3.30;99.90;;;;;;5054444;28;20570;-68
2023/01/28 09:38:01;;;;;;;5.70;2.30;;;3.30;99.90;;;;;;5054600;28;20592;-70
2023/01/28 09:40:34;;;;;;;8.20;3.07;;;3.30;99.90;;;;;;5054440;28;20451;-70
2023/01/28 09:43:26;;;;;;;14.03;6.10;;;3.40;99.90;;;;;;5054273;28;20485;-68
2023/01/28 09:45:57;;;;;;;4.27;2.73;;;3.50;99.90;;;;;;5058025;28;20439;-68
2023/01/28 09:48:31;;;;;;;2.67;1.43;;;3.50;99.90;;;;;;5058282;28;20443;-68
2023/01/28 09:50:59;;;;;;;1.70;1.60;;;3.50;99.90;;;;;;5058119;28;20435;-70
2023/01/28 09:53:30;;;;;;;5.23;1.40;;;3.50;99.90;;;;;;5058008;28;20545;-68
2023/01/28 09:56:00;;;;;;;3.93;2.20;;;3.50;99.90;;;;;;5057818;28;20493;-70
2023/01/28 09:58:27;;;;;;;13.73;6.60;;;3.60;99.90;;;;;;5058024;28;20486;-70
2023/01/28 10:00:59;;;;;;;6.13;3.57;;;3.60;99.90;;;;;;5057915;28;20455;-69
2023/01/28 10:03:39;;;;;;;10.97;4.90;;;3.60;99.90;;;;;;5057939;28;20448;-69
2023/01/28 10:06:20;;;;;;;4.90;3.13;;;3.60;99.90;;;;;;5057933;28;20525;-70
2023/01/28 10:09:07;;;;;;;7.20;3.37;;;3.60;99.90;;;;;;5058323;28;20526;-69
2023/01/28 10:11:50;;;;;;;6.60;3.40;;;3.50;99.90;;;;;;5057823;28;20443;-69
2023/01/28 10:14:28;;;;;;;1.73;1.40;;;3.50;99.90;;;;;;5057671;28;20443;-69
2023/01/28 10:17:05;;;;;;;2.67;1.83;;;3.60;99.90;;;;;;5057478;28;20518;-70
2023/01/28 10:19:39;;;;;;;2.27;1.70;;;3.60;99.90;;;;;;5057196;28;20960;-70
2023/01/28 10:22:11;;;;;;;2.07;1.40;;;3.60;99.90;;;;;;5057321;28;20443;-69
2023/01/28 10:24:44;;;;;;;1.87;1.33;;;3.60;99.90;;;;;;5057258;28;20761;-69
2023/01/28 10:27:15;;;;;;;2.23;1.30;;;3.60;99.90;;;;;;5056998;28;20450;-69
2023/01/28 10:29:44;;;;;;;2.73;1.33;;;3.60;99.90;;;;;;5056925;28;20471;-70
2023/01/28 10:32:21;;;;;;;1.63;1.50;;;3.60;99.90;;;;;;5056887;28;20459;-68
2023/01/28 10:34:49;;;;;;;5.43;1.47;;;3.60;99.90;;;;;;5056705;28;20467;-69
2023/01/28 10:37:16;;;;;;;5.80;2.00;;;3.70;99.90;;;;;;5056660;28;20934;-69
2023/01/28 10:39:44;;;;;;;5.23;2.03;;;3.70;99.90;;;;;;5057030;28;20459;-69
2023/01/28 10:42:20;;;;;;;3.10;2.20;;;3.70;99.90;;;;;;5056507;28;20465;-69
2023/01/28 10:44:49;;;;;;;2.40;1.40;;;3.70;99.90;;;;;;5056194;28;20478;-70
2023/01/28 10:47:27;;;;;;;2.80;1.73;;;3.70;99.90;;;;;;5057254;28;20443;-69
2023/01/28 10:49:58;;;;;;;1.50;1.03;;;3.70;99.90;;;;;;5057792;28;20439;-69
2023/01/28 10:52:25;;;;;;;3.50;1.70;;;3.70;99.90;;;;;;5056512;28;20451;-70
2023/01/28 10:55:00;;;;;;;5.17;3.03;;;3.80;99.90;;;;;;5056405;28;20483;-70
2023/01/28 10:57:27;;;;;;;3.70;1.37;;;3.80;99.90;;;;;;5056569;28;20456;-70
2023/01/28 10:59:54;;;;;;;5.73;1.80;;;3.80;99.90;;;;;;5056066;28;20546;-70
2023/01/28 11:02:28;;;;;;;1.50;1.40;;;3.70;99.90;;;;;;5056310;28;20766;-70
2023/01/28 11:05:07;;;;;;;2.67;1.90;;;3.80;99.90;;;;;;5056351;28;20439;-71
2023/01/28 11:07:34;;;;;;;3.03;1.80;;;3.80;99.90;;;;;;5056291;28;20542;-69
2023/01/28 11:10:01;;;;;;;3.90;1.80;;;3.80;99.90;;;;;;5056169;28;20459;-70
2023/01/28 11:12:29;;;;;;;3.00;1.20;;;3.90;99.90;;;;;;5056600;28;20451;-70
2023/01/28 11:14:57;;;;;;;4.00;1.50;;;3.90;99.90;;;;;;5056227;28;20483;-70
2023/01/28 11:17:28;;;;;;;2.77;2.43;;;3.90;99.90;;;;;;5056331;28;20690;-69
2023/01/28 11:19:56;;;;;;;2.37;1.77;;;3.90;99.90;;;;;;5056017;28;20500;-70
2023/01/28 11:22:32;;;;;;;3.23;1.77;;;3.90;99.90;;;;;;5055717;28;20530;-69
2023/01/28 11:25:00;;;;;;;2.50;1.27;;;3.90;99.90;;;;;;5056125;28;20907;-70
2023/01/28 11:27:29;;;;;;;1.93;1.47;;;3.90;99.90;;;;;;5055777;28;20459;-70
2023/01/28 11:30:00;;;;;;;2.40;1.53;;;3.90;99.90;;;;;;5056202;28;20459;-70
2023/01/28 11:32:29;;;;;;;1.87;1.20;;;3.80;99.90;;;;;;5055844;28;20443;-70
2023/01/28 11:34:58;;;;;;;2.67;2.00;;;3.80;99.90;;;;;;5067407;28;20492;-70
2023/01/28 11:37:28;;;;;;;3.03;1.70;;;3.80;99.90;;;;;;5075639;28;20462;-71
2023/01/28 11:40:03;;;;;;;4.90;1.77;;;3.80;99.90;;;;;;5076422;28;20519;-68
2023/01/28 11:42:30;;;;;;;2.23;1.87;;;3.80;99.90;;;;;;5075219;28;20489;-70
2023/01/28 11:44:57;;;;;;;3.17;2.17;;;3.80;99.90;;;;;;5073928;28;20458;-70
2023/01/28 11:47:35;;;;;;;1.50;1.37;;;3.80;99.90;;;;;;5075862;28;20545;-71
2023/01/28 11:50:18;;;;;;;2.00;1.43;;;3.80;99.90;;;;;;5075623;28;20457;-71
2023/01/28 11:52:57;;;;;;;6.73;2.50;;;3.80;99.90;;;;;;5075036;28;20485;-69
2023/01/28 11:55:37;;;;;;;2.97;2.00;;;3.80;99.90;;;;;;5055310;28;20555;-70
2023/01/28 11:58:18;;;;;;;2.10;1.57;;;3.80;99.90;;;;;;5055549;28;20767;-70
2023/01/28 12:00:55;;;;;;;1.60;1.50;;;3.70;99.90;;;;;;5055410;28;20555;-71
2023/01/28 12:03:41;;;;;;;1.90;1.60;;;3.60;99.90;;;;;;5055385;28;20461;-70
2023/01/28 12:06:28;;;;;;;1.87;1.43;;;3.40;99.90;;;;;;5054872;28;20439;-70
2023/01/28 12:09:11;;;;;;;2.33;1.90;;;3.30;99.90;;;;;;5055211;28;20531;-70
2023/01/28 12:15:19;;;;;;;2.60;1.70;;;3.00;99.90;;;;;;5051695;28;20447;-70
2023/01/28 12:18:00;;;;;;;2.87;1.70;;;2.80;99.90;;;;;;5049686;28;20485;-70
2023/01/28 12:20:32;;;;;;;2.37;1.80;;;2.70;99.90;;;;;;5054897;28;20443;-69
2023/01/28 12:23:33;;;;;;;2.50;2.30;;;2.80;99.90;;;;;;5054678;28;20440;-70
2023/01/28 12:26:11;;;;;;;2.67;2.47;;;2.80;99.90;;;;;;5054903;28;20747;-70
2023/01/28 12:28:48;;;;;;;2.37;1.77;;;2.90;99.90;;;;;;5054739;28;20550;-70
2023/01/28 12:31:38;;;;;;;2.47;2.10;;;3.00;99.90;;;;;;5054403;28;20558;-70
2023/01/28 12:34:26;;;;;;;2.80;2.17;;;3.00;99.90;;;;;;5054483;28;20444;-70
2023/01/28 12:37:04;;;;;;;4.53;2.10;;;2.90;99.90;;;;;;5054866;28;20467;-70
2023/01/28 12:39:44;;;;;;;4.10;2.50;;;2.80;99.90;;;;;;5054672;28;20779;-69
2023/01/28 12:42:17;;;;;;;4.93;2.80;;;2.80;99.90;;;;;;5054887;28;20469;-69
2023/01/28 12:44:49;;;;;;;3.67;2.20;;;2.80;99.90;;;;;;5054072;28;20489;-71
2023/01/28 12:47:20;;;;;;;4.07;2.80;;;2.80;99.90;;;;;;5054562;28;20457;-70
2023/01/28 12:49:51;;;;;;;3.10;2.13;;;2.80;99.90;;;;;;5054386;28;20443;-70
2023/01/28 12:52:22;;;;;;;6.73;1.90;;;2.80;99.90;;;;;;5054281;28;20892;-70
2023/01/28 12:54:57;;;;;;;4.23;2.50;;;2.80;99.90;;;;;;5054750;28;20469;-71
2023/01/28 12:57:28;;;;;;;4.07;1.80;;;2.80;99.90;;;;;;5054139;28;20509;-70
2023/01/28 13:00:06;;;;;;;3.43;2.27;;;2.80;99.90;;;;;;5054050;28;20444;-71
2023/01/28 13:02:38;;;;;;;5.57;2.67;;;2.90;99.90;;;;;;5054292;28;20443;-70
2023/01/28 13:05:10;;;;;;;3.53;3.00;;;2.90;99.90;;;;;;5054301;28;20652;-70
2023/01/28 13:07:43;;;;;;;2.67;1.77;;;2.90;99.90;;;;;;5054442;28;20530;-69
2023/01/28 13:10:19;;;;;;;2.57;1.90;;;3.00;99.90;;;;;;5054903;28;20541;-70
2023/01/28 13:12:48;;;;;;;5.73;3.90;;;3.00;99.90;;;;;;5059839;28;20458;-70
2023/01/28 13:15:18;;;;;;;5.17;3.63;;;3.00;99.90;;;;;;5074774;28;20464;-70
2023/01/28 13:17:55;;;;;;;4.73;2.83;;;3.00;99.90;;;;;;5074853;28;20468;-70
2023/01/28 13:20:37;;;;;;;3.70;2.70;;;2.90;99.90;;;;;;5080340;28;20442;-69
2023/01/28 13:23:20;;;;;;;2.90;2.43;;;2.80;99.90;;;;;;5080924;28;20453;-68
2023/01/28 13:25:50;;;;;;;3.53;2.13;;;2.60;99.90;;;;;;5080902;28;20841;-70
2023/01/28 13:28:28;;;;;;;3.20;1.83;;;2.50;99.90;;;;;;5080770;28;20458;-70
2023/01/28 13:31:03;;;;;;;4.40;2.60;;;2.50;99.90;;;;;;5081411;28;20755;-70
2023/01/28 13:33:32;;;;;;;2.40;2.13;;;2.40;99.90;;;;;;5081166;28;20529;-69
2023/01/28 13:36:07;;;;;;;2.10;1.90;;;2.50;99.90;;;;;;5081091;28;20505;-69
2023/01/28 13:38:34;;;;;;;2.00;1.80;;;2.50;99.90;;;;;;5080561;28;20884;-69
2023/01/28 13:41:05;;;;;;;2.17;1.90;;;2.50;99.90;;;;;;5079785;28;20450;-68
2023/01/28 13:43:42;;;;;;;1.70;1.60;;;2.60;99.90;;;;;;5080189;28;20484;-69
2023/01/28 13:46:11;;;;;;;2.80;1.40;;;2.70;99.90;;;;;;5080823;28;20521;-69